sensor_id;sensor_type;location;lat;lon;timestamp;P1;durP1;ratioP1;P2;durP2;ratioP2
32333;SDS011;18810;53.040;8.850;2023-03-01T00:00:15;38.53;;;20.83;;
32333;SDS011;18810;53.040;8.850;2023-03-01T00:02:41;33.05;;;20.10;;
32333;SDS011;18810;53.040;8.850;2023-03-01T00:05:07;35.55;;;21.98;;
32333;SDS011;18810;53.040;8.850;2023-03-01T00:07:33;37.83;;;22.85;;
32333;SDS011;18810;53.040;8.850;2023-03-01T00:10:02;44.08;;;22.55;;
32333;SDS011;18810;53.040;8.850;2023-03-01T00:12:28;41.47;;;23.92;;
32333;SDS011;18810;53.040;8.850;2023-03-01T00:14:56;45.83;;;23.83;;
32333;SDS011;18810;53.040;8.850;2023-03-01T00:17:22;44.55;;;23.70;;
32333;SDS011;18810;53.040;8.850;2023-03-01T00:19:48;38.72;;;21.42;;
32333;SDS011;18810;53.040;8.850;2023-03-01T00:22:13;38.40;;;22.85;;
32333;SDS011;18810;53.040;8.850;2023-03-01T00:24:39;38.80;;;22.48;;
32333;SDS011;18810;53.040;8.850;2023-03-01T00:27:05;37.88;;;21.85;;
32333;SDS011;18810;53.040;8.850;2023-03-01T00:29:30;35.47;;;21.00;;
32333;SDS011;18810;53.040;8.850;2023-03-01T00:31:56;32.08;;;19.55;;
32333;SDS011;18810;53.040;8.850;2023-03-01T00:34:25;40.45;;;22.48;;
32333;SDS011;18810;53.040;8.850;2023-03-01T00:36:51;32.17;;;19.00;;
32333;SDS011;18810;53.040;8.850;2023-03-01T00:39:17;33.15;;;18.70;;
32333;SDS011;18810;53.040;8.850;2023-03-01T00:41:43;30.88;;;18.88;;
32333;SDS011;18810;53.040;8.850;2023-03-01T00:44:09;35.83;;;19.50;;
32333;SDS011;18810;53.040;8.850;2023-03-01T00:46:35;29.90;;;19.30;;
32333;SDS011;18810;53.040;8.850;2023-03-01T00:49:01;34.60;;;19.27;;
32333;SDS011;18810;53.040;8.850;2023-03-01T00:51:27;38.92;;;20.77;;
32333;SDS011;18810;53.040;8.850;2023-03-01T00:53:54;34.72;;;20.80;;
32333;SDS011;18810;53.040;8.850;2023-03-01T00:56:21;32.30;;;19.15;;
32333;SDS011;18810;53.040;8.850;2023-03-01T00:58:48;37.13;;;20.08;;
32333;SDS011;18810;53.040;8.850;2023-03-01T01:01:15;36.55;;;19.52;;
32333;SDS011;18810;53.040;8.850;2023-03-01T01:03:51;34.03;;;19.38;;
32333;SDS011;18810;53.040;8.850;2023-03-01T01:06:22;34.70;;;20.50;;
32333;SDS011;18810;53.040;8.850;2023-03-01T01:08:50;33.30;;;20.15;;
32333;SDS011;18810;53.040;8.850;2023-03-01T01:11:17;35.38;;;18.50;;
32333;SDS011;18810;53.040;8.850;2023-03-01T01:13:44;30.92;;;18.42;;
32333;SDS011;18810;53.040;8.850;2023-03-01T01:16:11;31.60;;;18.20;;
32333;SDS011;18810;53.040;8.850;2023-03-01T01:18:37;31.45;;;17.92;;
32333;SDS011;18810;53.040;8.850;2023-03-01T01:21:07;32.40;;;18.40;;
32333;SDS011;18810;53.040;8.850;2023-03-01T01:23:35;32.17;;;18.40;;
32333;SDS011;18810;53.040;8.850;2023-03-01T01:26:09;30.67;;;18.45;;
32333;SDS011;18810;53.040;8.850;2023-03-01T01:28:37;29.88;;;18.63;;
32333;SDS011;18810;53.040;8.850;2023-03-01T01:31:03;30.67;;;18.38;;
32333;SDS011;18810;53.040;8.850;2023-03-01T01:33:30;34.00;;;19.50;;
32333;SDS011;18810;53.040;8.850;2023-03-01T01:35:56;31.02;;;19.02;;
32333;SDS011;18810;53.040;8.850;2023-03-01T01:38:21;31.88;;;19.25;;
32333;SDS011;18810;53.040;8.850;2023-03-01T01:40:48;30.23;;;17.58;;
32333;SDS011;18810;53.040;8.850;2023-03-01T01:43:25;32.88;;;19.70;;
32333;SDS011;18810;53.040;8.850;2023-03-01T01:48:52;33.50;;;18.75;;
32333;SDS011;18810;53.040;8.850;2023-03-01T01:51:27;31.85;;;18.88;;
32333;SDS011;18810;53.040;8.850;2023-03-01T01:54:03;28.42;;;18.30;;
32333;SDS011;18810;53.040;8.850;2023-03-01T01:56:34;28.13;;;18.15;;
32333;SDS011;18810;53.040;8.850;2023-03-01T01:59:04;29.83;;;17.63;;
32333;SDS011;18810;53.040;8.850;2023-03-01T02:01:30;28.73;;;17.70;;
32333;SDS011;18810;53.040;8.850;2023-03-01T02:03:56;28.10;;;18.30;;
32333;SDS011;18810;53.040;8.850;2023-03-01T02:06:26;35.15;;;19.10;;
32333;SDS011;18810;53.040;8.850;2023-03-01T02:09:00;28.80;;;16.88;;
32333;SDS011;18810;53.040;8.850;2023-03-01T02:11:31;31.05;;;19.15;;
32333;SDS011;18810;53.040;8.850;2023-03-01T02:13:58;29.85;;;18.58;;
32333;SDS011;18810;53.040;8.850;2023-03-01T02:16:25;29.85;;;17.45;;
32333;SDS011;18810;53.040;8.850;2023-03-01T02:18:51;29.20;;;17.33;;
32333;SDS011;18810;53.040;8.850;2023-03-01T02:26:50;28.08;;;16.92;;
32333;SDS011;18810;53.040;8.850;2023-03-01T02:29:20;27.30;;;17.65;;
32333;SDS011;18810;53.040;8.850;2023-03-01T02:31:47;29.85;;;18.52;;
32333;SDS011;18810;53.040;8.850;2023-03-01T02:34:20;31.63;;;18.08;;
32333;SDS011;18810;53.040;8.850;2023-03-01T02:36:57;28.67;;;17.17;;
32333;SDS011;18810;53.040;8.850;2023-03-01T02:39:35;26.92;;;17.65;;
32333;SDS011;18810;53.040;8.850;2023-03-01T02:42:07;31.90;;;17.95;;
32333;SDS011;18810;53.040;8.850;2023-03-01T02:44:38;27.10;;;16.95;;
32333;SDS011;18810;53.040;8.850;2023-03-01T02:47:03;33.08;;;17.20;;
32333;SDS011;18810;53.040;8.850;2023-03-01T02:49:32;25.52;;;16.80;;
32333;SDS011;18810;53.040;8.850;2023-03-01T02:54:58;28.17;;;17.33;;
32333;SDS011;18810;53.040;8.850;2023-03-01T02:57:44;26.98;;;17.00;;
32333;SDS011;18810;53.040;8.850;2023-03-01T03:00:12;30.85;;;18.05;;
32333;SDS011;18810;53.040;8.850;2023-03-01T03:02:44;29.00;;;16.58;;
32333;SDS011;18810;53.040;8.850;2023-03-01T03:05:26;25.08;;;16.00;;
32333;SDS011;18810;53.040;8.850;2023-03-01T03:07:55;25.95;;;16.75;;
32333;SDS011;18810;53.040;8.850;2023-03-01T03:10:23;26.60;;;16.98;;
32333;SDS011;18810;53.040;8.850;2023-03-01T03:12:57;28.02;;;16.92;;
32333;SDS011;18810;53.040;8.850;2023-03-01T03:15:25;25.55;;;16.75;;
32333;SDS011;18810;53.040;8.850;2023-03-01T03:17:55;28.60;;;16.65;;
32333;SDS011;18810;53.040;8.850;2023-03-01T03:20:24;27.48;;;16.27;;
32333;SDS011;18810;53.040;8.850;2023-03-01T03:22:52;28.53;;;17.10;;
32333;SDS011;18810;53.040;8.850;2023-03-01T03:25:21;27.70;;;17.63;;
32333;SDS011;18810;53.040;8.850;2023-03-01T03:27:48;33.20;;;18.77;;
32333;SDS011;18810;53.040;8.850;2023-03-01T03:30:22;26.75;;;17.25;;
32333;SDS011;18810;53.040;8.850;2023-03-01T03:32:50;26.90;;;18.35;;
32333;SDS011;18810;53.040;8.850;2023-03-01T03:35:20;28.13;;;17.63;;
32333;SDS011;18810;53.040;8.850;2023-03-01T03:37:57;33.15;;;17.65;;
32333;SDS011;18810;53.040;8.850;2023-03-01T03:40:35;30.25;;;18.70;;
32333;SDS011;18810;53.040;8.850;2023-03-01T03:43:03;31.85;;;19.27;;
32333;SDS011;18810;53.040;8.850;2023-03-01T03:45:30;30.67;;;18.17;;
32333;SDS011;18810;53.040;8.850;2023-03-01T03:47:58;28.45;;;18.08;;
32333;SDS011;18810;53.040;8.850;2023-03-01T03:50:24;34.72;;;18.35;;
32333;SDS011;18810;53.040;8.850;2023-03-01T03:52:50;33.10;;;18.65;;
32333;SDS011;18810;53.040;8.850;2023-03-01T03:55:15;28.90;;;18.45;;
32333;SDS011;18810;53.040;8.850;2023-03-01T03:57:44;25.88;;;17.50;;
32333;SDS011;18810;53.040;8.850;2023-03-01T04:00:20;26.52;;;17.38;;
32333;SDS011;18810;53.040;8.850;2023-03-01T04:02:46;26.95;;;17.33;;
32333;SDS011;18810;53.040;8.850;2023-03-01T04:05:14;29.33;;;18.27;;
32333;SDS011;18810;53.040;8.850;2023-03-01T04:07:42;31.33;;;18.90;;
32333;SDS011;18810;53.040;8.850;2023-03-01T04:10:09;26.75;;;18.05;;
32333;SDS011;18810;53.040;8.850;2023-03-01T04:12:42;30.90;;;18.92;;
32333;SDS011;18810;53.040;8.850;2023-03-01T04:15:08;27.13;;;17.73;;
32333;SDS011;18810;53.040;8.850;2023-03-01T04:17:42;28.27;;;17.75;;
32333;SDS011;18810;53.040;8.850;2023-03-01T04:20:10;30.27;;;18.17;;
32333;SDS011;18810;53.040;8.850;2023-03-01T04:22:38;31.27;;;18.73;;
32333;SDS011;18810;53.040;8.850;2023-03-01T04:25:05;29.33;;;18.67;;
32333;SDS011;18810;53.040;8.850;2023-03-01T04:27:35;33.80;;;18.88;;
32333;SDS011;18810;53.040;8.850;2023-03-01T04:30:01;30.75;;;18.48;;
32333;SDS011;18810;53.040;8.850;2023-03-01T04:32:28;32.35;;;19.85;;
32333;SDS011;18810;53.040;8.850;2023-03-01T04:34:54;29.58;;;18.55;;
32333;SDS011;18810;53.040;8.850;2023-03-01T04:37:19;30.60;;;18.17;;
32333;SDS011;18810;53.040;8.850;2023-03-01T04:39:45;26.73;;;17.30;;
32333;SDS011;18810;53.040;8.850;2023-03-01T04:42:12;29.13;;;17.83;;
32333;SDS011;18810;53.040;8.850;2023-03-01T04:44:42;26.63;;;16.55;;
32333;SDS011;18810;53.040;8.850;2023-03-01T04:47:08;34.40;;;19.02;;
32333;SDS011;18810;53.040;8.850;2023-03-01T04:49:34;29.92;;;18.05;;
32333;SDS011;18810;53.040;8.850;2023-03-01T04:52:00;32.58;;;19.15;;
32333;SDS011;18810;53.040;8.850;2023-03-01T04:54:29;30.08;;;18.35;;
32333;SDS011;18810;53.040;8.850;2023-03-01T04:56:55;27.77;;;17.15;;
32333;SDS011;18810;53.040;8.850;2023-03-01T04:59:21;30.63;;;18.27;;
32333;SDS011;18810;53.040;8.850;2023-03-01T05:01:50;32.00;;;18.02;;
32333;SDS011;18810;53.040;8.850;2023-03-01T05:04:17;28.52;;;17.70;;
32333;SDS011;18810;53.040;8.850;2023-03-01T05:06:43;30.52;;;17.95;;
32333;SDS011;18810;53.040;8.850;2023-03-01T05:09:09;30.23;;;18.40;;
32333;SDS011;18810;53.040;8.850;2023-03-01T05:11:36;28.60;;;17.35;;
32333;SDS011;18810;53.040;8.850;2023-03-01T05:14:02;31.15;;;18.90;;
32333;SDS011;18810;53.040;8.850;2023-03-01T05:16:29;29.17;;;18.05;;
32333;SDS011;18810;53.040;8.850;2023-03-01T05:18:56;28.73;;;18.75;;
32333;SDS011;18810;53.040;8.850;2023-03-01T05:21:22;32.38;;;19.05;;
32333;SDS011;18810;53.040;8.850;2023-03-01T05:23:48;26.73;;;17.70;;
32333;SDS011;18810;53.040;8.850;2023-03-01T05:26:14;30.85;;;17.98;;
32333;SDS011;18810;53.040;8.850;2023-03-01T05:28:40;32.78;;;18.45;;
32333;SDS011;18810;53.040;8.850;2023-03-01T05:31:06;31.70;;;18.33;;
32333;SDS011;18810;53.040;8.850;2023-03-01T05:33:37;30.13;;;18.80;;
32333;SDS011;18810;53.040;8.850;2023-03-01T05:36:05;34.33;;;18.20;;
32333;SDS011;18810;53.040;8.850;2023-03-01T05:38:32;31.30;;;18.88;;
32333;SDS011;18810;53.040;8.850;2023-03-01T05:40:58;30.33;;;18.42;;
32333;SDS011;18810;53.040;8.850;2023-03-01T05:43:24;28.83;;;17.70;;
32333;SDS011;18810;53.040;8.850;2023-03-01T05:45:50;31.00;;;18.42;;
32333;SDS011;18810;53.040;8.850;2023-03-01T05:48:16;31.05;;;18.52;;
32333;SDS011;18810;53.040;8.850;2023-03-01T05:50:44;34.05;;;20.42;;
32333;SDS011;18810;53.040;8.850;2023-03-01T05:53:13;37.63;;;20.67;;
32333;SDS011;18810;53.040;8.850;2023-03-01T05:55:44;32.92;;;19.08;;
32333;SDS011;18810;53.040;8.850;2023-03-01T05:58:13;34.25;;;19.55;;
32333;SDS011;18810;53.040;8.850;2023-03-01T06:00:40;30.60;;;20.00;;
32333;SDS011;18810;53.040;8.850;2023-03-01T06:03:09;35.60;;;20.02;;
32333;SDS011;18810;53.040;8.850;2023-03-01T06:05:39;32.28;;;20.33;;
32333;SDS011;18810;53.040;8.850;2023-03-01T06:08:06;30.05;;;19.55;;
32333;SDS011;18810;53.040;8.850;2023-03-01T06:10:32;35.03;;;19.85;;
32333;SDS011;18810;53.040;8.850;2023-03-01T06:12:57;33.22;;;19.83;;
32333;SDS011;18810;53.040;8.850;2023-03-01T06:15:24;30.98;;;19.13;;
32333;SDS011;18810;53.040;8.850;2023-03-01T06:17:50;31.77;;;19.80;;
32333;SDS011;18810;53.040;8.850;2023-03-01T06:20:16;29.65;;;18.52;;
32333;SDS011;18810;53.040;8.850;2023-03-01T06:22:44;33.70;;;19.80;;
32333;SDS011;18810;53.040;8.850;2023-03-01T06:25:12;31.02;;;18.98;;
32333;SDS011;18810;53.040;8.850;2023-03-01T06:27:39;33.55;;;20.88;;
32333;SDS011;18810;53.040;8.850;2023-03-01T06:30:06;36.95;;;20.08;;
32333;SDS011;18810;53.040;8.850;2023-03-01T06:32:32;35.13;;;20.23;;
32333;SDS011;18810;53.040;8.850;2023-03-01T06:34:58;31.60;;;19.40;;
32333;SDS011;18810;53.040;8.850;2023-03-01T06:37:25;31.83;;;18.90;;
32333;SDS011;18810;53.040;8.850;2023-03-01T06:39:51;34.67;;;19.75;;
32333;SDS011;18810;53.040;8.850;2023-03-01T06:42:16;33.83;;;19.98;;
32333;SDS011;18810;53.040;8.850;2023-03-01T06:44:43;30.25;;;18.42;;
32333;SDS011;18810;53.040;8.850;2023-03-01T06:47:09;30.85;;;19.08;;
32333;SDS011;18810;53.040;8.850;2023-03-01T06:49:35;33.70;;;19.67;;
32333;SDS011;18810;53.040;8.850;2023-03-01T06:52:00;32.80;;;19.98;;
32333;SDS011;18810;53.040;8.850;2023-03-01T06:54:26;30.90;;;18.73;;
32333;SDS011;18810;53.040;8.850;2023-03-01T06:56:52;33.05;;;18.70;;
32333;SDS011;18810;53.040;8.850;2023-03-01T06:59:18;29.58;;;18.75;;
32333;SDS011;18810;53.040;8.850;2023-03-01T07:01:44;30.33;;;19.38;;
32333;SDS011;18810;53.040;8.850;2023-03-01T07:04:10;30.38;;;19.13;;
32333;SDS011;18810;53.040;8.850;2023-03-01T07:06:36;27.27;;;19.30;;
32333;SDS011;18810;53.040;8.850;2023-03-01T07:09:02;28.75;;;19.08;;
32333;SDS011;18810;53.040;8.850;2023-03-01T07:11:27;28.42;;;18.58;;
32333;SDS011;18810;53.040;8.850;2023-03-01T07:13:53;30.10;;;18.35;;
32333;SDS011;18810;53.040;8.850;2023-03-01T07:16:20;26.98;;;17.58;;
32333;SDS011;18810;53.040;8.850;2023-03-01T07:18:45;32.30;;;20.33;;
32333;SDS011;18810;53.040;8.850;2023-03-01T07:21:12;32.33;;;20.98;;
32333;SDS011;18810;53.040;8.850;2023-03-01T07:23:39;32.60;;;19.92;;
32333;SDS011;18810;53.040;8.850;2023-03-01T07:26:05;33.08;;;19.10;;
32333;SDS011;18810;53.040;8.850;2023-03-01T07:28:30;36.65;;;23.10;;
32333;SDS011;18810;53.040;8.850;2023-03-01T07:31:04;38.08;;;23.27;;
32333;SDS011;18810;53.040;8.850;2023-03-01T07:33:30;31.92;;;20.60;;
32333;SDS011;18810;53.040;8.850;2023-03-01T07:36:00;31.23;;;20.58;;
32333;SDS011;18810;53.040;8.850;2023-03-01T07:38:28;41.20;;;23.63;;
32333;SDS011;18810;53.040;8.850;2023-03-01T07:40:57;35.33;;;21.63;;
32333;SDS011;18810;53.040;8.850;2023-03-01T07:43:24;32.90;;;22.40;;
32333;SDS011;18810;53.040;8.850;2023-03-01T07:45:50;31.00;;;20.42;;
32333;SDS011;18810;53.040;8.850;2023-03-01T07:48:16;34.42;;;20.88;;
32333;SDS011;18810;53.040;8.850;2023-03-01T07:50:42;32.70;;;18.83;;
32333;SDS011;18810;53.040;8.850;2023-03-01T07:53:08;28.25;;;19.83;;
32333;SDS011;18810;53.040;8.850;2023-03-01T07:55:35;31.20;;;20.92;;
32333;SDS011;18810;53.040;8.850;2023-03-01T07:58:01;27.13;;;19.55;;
32333;SDS011;18810;53.040;8.850;2023-03-01T08:00:26;28.85;;;19.52;;
32333;SDS011;18810;53.040;8.850;2023-03-01T08:02:52;28.38;;;19.13;;
32333;SDS011;18810;53.040;8.850;2023-03-01T08:05:18;26.75;;;18.15;;
32333;SDS011;18810;53.040;8.850;2023-03-01T08:07:44;29.65;;;19.23;;
32333;SDS011;18810;53.040;8.850;2023-03-01T08:10:10;27.52;;;18.85;;
32333;SDS011;18810;53.040;8.850;2023-03-01T08:12:36;28.75;;;18.77;;
32333;SDS011;18810;53.040;8.850;2023-03-01T08:15:02;27.55;;;18.38;;
32333;SDS011;18810;53.040;8.850;2023-03-01T08:17:27;29.52;;;18.95;;
32333;SDS011;18810;53.040;8.850;2023-03-01T08:19:53;31.52;;;20.08;;
32333;SDS011;18810;53.040;8.850;2023-03-01T08:22:19;36.05;;;21.27;;
32333;SDS011;18810;53.040;8.850;2023-03-01T08:24:44;30.15;;;19.95;;
32333;SDS011;18810;53.040;8.850;2023-03-01T08:27:11;28.23;;;19.83;;
32333;SDS011;18810;53.040;8.850;2023-03-01T08:29:37;27.08;;;19.65;;
32333;SDS011;18810;53.040;8.850;2023-03-01T08:32:02;31.05;;;20.20;;
32333;SDS011;18810;53.040;8.850;2023-03-01T08:34:29;29.15;;;18.55;;
32333;SDS011;18810;53.040;8.850;2023-03-01T08:36:56;32.33;;;18.77;;
32333;SDS011;18810;53.040;8.850;2023-03-01T08:39:22;27.80;;;16.67;;
32333;SDS011;18810;53.040;8.850;2023-03-01T08:41:47;23.48;;;15.40;;
32333;SDS011;18810;53.040;8.850;2023-03-01T08:44:14;21.80;;;14.18;;
32333;SDS011;18810;53.040;8.850;2023-03-01T08:46:42;22.98;;;15.07;;
32333;SDS011;18810;53.040;8.850;2023-03-01T08:49:12;22.73;;;15.02;;
32333;SDS011;18810;53.040;8.850;2023-03-01T08:51:39;20.85;;;15.55;;
32333;SDS011;18810;53.040;8.850;2023-03-01T08:54:06;17.73;;;13.68;;
32333;SDS011;18810;53.040;8.850;2023-03-01T08:56:36;24.75;;;15.43;;
32333;SDS011;18810;53.040;8.850;2023-03-01T08:59:02;23.52;;;15.20;;
32333;SDS011;18810;53.040;8.850;2023-03-01T09:01:28;26.70;;;15.48;;
32333;SDS011;18810;53.040;8.850;2023-03-01T09:03:54;24.85;;;16.17;;
32333;SDS011;18810;53.040;8.850;2023-03-01T09:06:19;24.45;;;15.18;;
32333;SDS011;18810;53.040;8.850;2023-03-01T09:08:46;26.05;;;15.93;;
32333;SDS011;18810;53.040;8.850;2023-03-01T09:11:14;21.52;;;14.75;;
32333;SDS011;18810;53.040;8.850;2023-03-01T09:13:45;23.60;;;15.55;;
32333;SDS011;18810;53.040;8.850;2023-03-01T09:16:13;23.88;;;14.38;;
32333;SDS011;18810;53.040;8.850;2023-03-01T09:18:41;22.90;;;15.18;;
32333;SDS011;18810;53.040;8.850;2023-03-01T09:21:08;24.60;;;14.85;;
32333;SDS011;18810;53.040;8.850;2023-03-01T09:23:37;23.88;;;13.80;;
32333;SDS011;18810;53.040;8.850;2023-03-01T09:26:08;19.70;;;13.77;;
32333;SDS011;18810;53.040;8.850;2023-03-01T09:28:35;21.98;;;13.05;;
32333;SDS011;18810;53.040;8.850;2023-03-01T09:31:02;21.70;;;13.98;;
32333;SDS011;18810;53.040;8.850;2023-03-01T09:33:29;22.55;;;13.60;;
32333;SDS011;18810;53.040;8.850;2023-03-01T09:36:00;20.60;;;12.35;;
32333;SDS011;18810;53.040;8.850;2023-03-01T09:38:27;17.42;;;12.63;;
32333;SDS011;18810;53.040;8.850;2023-03-01T09:40:54;18.55;;;12.15;;
32333;SDS011;18810;53.040;8.850;2023-03-01T09:46:19;16.20;;;12.18;;
32333;SDS011;18810;53.040;8.850;2023-03-01T09:48:49;17.38;;;12.52;;
32333;SDS011;18810;53.040;8.850;2023-03-01T09:51:27;18.23;;;11.80;;
32333;SDS011;18810;53.040;8.850;2023-03-01T09:53:56;14.93;;;11.73;;
32333;SDS011;18810;53.040;8.850;2023-03-01T10:02:00;15.30;;;10.40;;
32333;SDS011;18810;53.040;8.850;2023-03-01T10:04:47;15.68;;;10.10;;
32333;SDS011;18810;53.040;8.850;2023-03-01T10:09:57;12.27;;;7.55;;
32333;SDS011;18810;53.040;8.850;2023-03-01T10:12:26;13.73;;;7.55;;
32333;SDS011;18810;53.040;8.850;2023-03-01T10:15:00;12.27;;;8.40;;
32333;SDS011;18810;53.040;8.850;2023-03-01T10:22:49;18.35;;;9.48;;
32333;SDS011;18810;53.040;8.850;2023-03-01T10:30:56;16.40;;;9.63;;
32333;SDS011;18810;53.040;8.850;2023-03-01T10:33:26;13.18;;;9.18;;
32333;SDS011;18810;53.040;8.850;2023-03-01T10:35:57;12.77;;;8.90;;
32333;SDS011;18810;53.040;8.850;2023-03-01T10:38:23;10.63;;;7.65;;
32333;SDS011;18810;53.040;8.850;2023-03-01T10:43:45;12.32;;;7.90;;
32333;SDS011;18810;53.040;8.850;2023-03-01T10:51:44;10.32;;;7.53;;
32333;SDS011;18810;53.040;8.850;2023-03-01T10:54:16;14.77;;;9.25;;
32333;SDS011;18810;53.040;8.850;2023-03-01T10:57:05;11.98;;;9.35;;
32333;SDS011;18810;53.040;8.850;2023-03-01T10:59:32;16.67;;;10.18;;
32333;SDS011;18810;53.040;8.850;2023-03-01T11:02:16;14.75;;;10.30;;
32333;SDS011;18810;53.040;8.850;2023-03-01T11:05:07;14.63;;;9.50;;
32333;SDS011;18810;53.040;8.850;2023-03-01T11:07:55;16.00;;;10.98;;
32333;SDS011;18810;53.040;8.850;2023-03-01T11:10:22;17.67;;;12.13;;
32333;SDS011;18810;53.040;8.850;2023-03-01T11:12:53;13.75;;;10.82;;
32333;SDS011;18810;53.040;8.850;2023-03-01T11:15:31;17.42;;;10.75;;
32333;SDS011;18810;53.040;8.850;2023-03-01T11:17:56;16.63;;;11.20;;
32333;SDS011;18810;53.040;8.850;2023-03-01T11:20:27;15.23;;;10.18;;
32333;SDS011;18810;53.040;8.850;2023-03-01T11:23:04;14.73;;;11.20;;
32333;SDS011;18810;53.040;8.850;2023-03-01T11:25:36;14.52;;;11.10;;
32333;SDS011;18810;53.040;8.850;2023-03-01T11:28:06;12.75;;;10.10;;
32333;SDS011;18810;53.040;8.850;2023-03-01T11:30:57;12.98;;;9.93;;
32333;SDS011;18810;53.040;8.850;2023-03-01T11:36:06;13.70;;;10.50;;
32333;SDS011;18810;53.040;8.850;2023-03-01T11:38:38;12.90;;;9.50;;
32333;SDS011;18810;53.040;8.850;2023-03-01T11:41:11;13.05;;;9.90;;
32333;SDS011;18810;53.040;8.850;2023-03-01T11:51:49;13.40;;;9.30;;
32333;SDS011;18810;53.040;8.850;2023-03-01T11:57:31;15.73;;;11.77;;
32333;SDS011;18810;53.040;8.850;2023-03-01T12:25:54;13.65;;;11.10;;
32333;SDS011;18810;53.040;8.850;2023-03-01T12:45:24;13.10;;;10.80;;
32333;SDS011;18810;53.040;8.850;2023-03-01T12:50:46;12.75;;;10.00;;
32333;SDS011;18810;53.040;8.850;2023-03-01T12:53:22;12.77;;;10.30;;
32333;SDS011;18810;53.040;8.850;2023-03-01T12:55:54;12.65;;;10.50;;
32333;SDS011;18810;53.040;8.850;2023-03-01T13:04:30;12.98;;;10.45;;
32333;SDS011;18810;53.040;8.850;2023-03-01T13:06:40;12.90;;;9.48;;
32333;SDS011;18810;53.040;8.850;2023-03-01T13:11:48;11.30;;;9.35;;
32333;SDS011;18810;53.040;8.850;2023-03-01T13:16:49;13.60;;;10.88;;
32333;SDS011;18810;53.040;8.850;2023-03-01T13:19:22;13.00;;;10.15;;
32333;SDS011;18810;53.040;8.850;2023-03-01T13:21:57;13.18;;;10.02;;
32333;SDS011;18810;53.040;8.850;2023-03-01T13:29:51;12.63;;;10.73;;
32333;SDS011;18810;53.040;8.850;2023-03-01T13:32:35;14.40;;;11.15;;
32333;SDS011;18810;53.040;8.850;2023-03-01T13:37:42;12.57;;;10.25;;
32333;SDS011;18810;53.040;8.850;2023-03-01T13:42:42;13.27;;;10.38;;
32333;SDS011;18810;53.040;8.850;2023-03-01T13:50:54;16.35;;;10.73;;
32333;SDS011;18810;53.040;8.850;2023-03-01T13:53:26;13.27;;;10.48;;
32333;SDS011;18810;53.040;8.850;2023-03-01T13:56:17;13.02;;;10.02;;
32333;SDS011;18810;53.040;8.850;2023-03-01T13:58:53;12.90;;;10.70;;
32333;SDS011;18810;53.040;8.850;2023-03-01T14:04:00;12.88;;;10.30;;
32333;SDS011;18810;53.040;8.850;2023-03-01T14:06:29;11.75;;;10.15;;
32333;SDS011;18810;53.040;8.850;2023-03-01T14:17:16;11.75;;;9.65;;
32333;SDS011;18810;53.040;8.850;2023-03-01T14:20:02;13.88;;;10.18;;
32333;SDS011;18810;53.040;8.850;2023-03-01T14:22:54;13.50;;;10.07;;
32333;SDS011;18810;53.040;8.850;2023-03-01T14:28:31;11.77;;;9.50;;
32333;SDS011;18810;53.040;8.850;2023-03-01T14:30:47;13.15;;;10.20;;
32333;SDS011;18810;53.040;8.850;2023-03-01T14:33:22;11.10;;;9.23;;
32333;SDS011;18810;53.040;8.850;2023-03-01T14:35:57;13.43;;;10.23;;
32333;SDS011;18810;53.040;8.850;2023-03-01T14:41:10;13.82;;;10.63;;
32333;SDS011;18810;53.040;8.850;2023-03-01T14:43:41;12.43;;;9.43;;
32333;SDS011;18810;53.040;8.850;2023-03-01T14:46:20;14.40;;;12.02;;
32333;SDS011;18810;53.040;8.850;2023-03-01T14:48:53;14.20;;;10.00;;
32333;SDS011;18810;53.040;8.850;2023-03-01T14:51:23;15.48;;;11.07;;
32333;SDS011;18810;53.040;8.850;2023-03-01T14:53:49;12.75;;;9.45;;
32333;SDS011;18810;53.040;8.850;2023-03-01T14:56:16;14.30;;;10.93;;
32333;SDS011;18810;53.040;8.850;2023-03-01T14:58:45;17.17;;;12.32;;
32333;SDS011;18810;53.040;8.850;2023-03-01T15:01:15;14.38;;;9.82;;
32333;SDS011;18810;53.040;8.850;2023-03-01T15:03:43;13.38;;;10.02;;
32333;SDS011;18810;53.040;8.850;2023-03-01T15:06:14;12.15;;;10.38;;
32333;SDS011;18810;53.040;8.850;2023-03-01T15:08:46;14.93;;;10.88;;
32333;SDS011;18810;53.040;8.850;2023-03-01T15:13:43;13.98;;;11.43;;
32333;SDS011;18810;53.040;8.850;2023-03-01T15:16:24;14.10;;;10.82;;
32333;SDS011;18810;53.040;8.850;2023-03-01T15:18:59;13.95;;;10.45;;
32333;SDS011;18810;53.040;8.850;2023-03-01T15:21:29;12.77;;;10.75;;
32333;SDS011;18810;53.040;8.850;2023-03-01T15:24:05;15.65;;;11.60;;
32333;SDS011;18810;53.040;8.850;2023-03-01T15:26:40;15.57;;;11.83;;
32333;SDS011;18810;53.040;8.850;2023-03-01T15:29:15;15.82;;;11.57;;
32333;SDS011;18810;53.040;8.850;2023-03-01T15:31:43;15.40;;;12.27;;
32333;SDS011;18810;53.040;8.850;2023-03-01T15:34:23;14.98;;;10.88;;
32333;SDS011;18810;53.040;8.850;2023-03-01T15:36:55;16.95;;;11.50;;
32333;SDS011;18810;53.040;8.850;2023-03-01T15:41:49;16.80;;;11.95;;
32333;SDS011;18810;53.040;8.850;2023-03-01T15:44:16;13.95;;;10.93;;
32333;SDS011;18810;53.040;8.850;2023-03-01T15:46:49;16.38;;;12.13;;
32333;SDS011;18810;53.040;8.850;2023-03-01T15:51:59;19.63;;;14.18;;
32333;SDS011;18810;53.040;8.850;2023-03-01T15:54:25;22.42;;;15.68;;
32333;SDS011;18810;53.040;8.850;2023-03-01T15:56:52;22.50;;;16.08;;
32333;SDS011;18810;53.040;8.850;2023-03-01T15:59:18;21.52;;;15.98;;
32333;SDS011;18810;53.040;8.850;2023-03-01T16:01:44;24.92;;;16.58;;
32333;SDS011;18810;53.040;8.850;2023-03-01T16:04:14;26.25;;;17.52;;
32333;SDS011;18810;53.040;8.850;2023-03-01T16:06:54;20.55;;;15.07;;
32333;SDS011;18810;53.040;8.850;2023-03-01T16:09:21;21.00;;;15.75;;
32333;SDS011;18810;53.040;8.850;2023-03-01T16:11:48;22.10;;;15.68;;
32333;SDS011;18810;53.040;8.850;2023-03-01T16:14:14;20.65;;;15.48;;
32333;SDS011;18810;53.040;8.850;2023-03-01T16:16:41;20.50;;;14.43;;
32333;SDS011;18810;53.040;8.850;2023-03-01T16:19:07;22.88;;;15.55;;
32333;SDS011;18810;53.040;8.850;2023-03-01T16:21:33;23.90;;;14.90;;
32333;SDS011;18810;53.040;8.850;2023-03-01T16:23:59;22.38;;;15.95;;
32333;SDS011;18810;53.040;8.850;2023-03-01T16:26:25;21.23;;;15.30;;
32333;SDS011;18810;53.040;8.850;2023-03-01T16:28:53;23.95;;;15.45;;
32333;SDS011;18810;53.040;8.850;2023-03-01T16:31:21;25.05;;;16.27;;
32333;SDS011;18810;53.040;8.850;2023-03-01T16:33:47;24.17;;;16.40;;
32333;SDS011;18810;53.040;8.850;2023-03-01T16:36:15;26.02;;;16.33;;
32333;SDS011;18810;53.040;8.850;2023-03-01T16:38:42;23.83;;;15.93;;
32333;SDS011;18810;53.040;8.850;2023-03-01T16:41:12;23.58;;;16.02;;
32333;SDS011;18810;53.040;8.850;2023-03-01T16:46:10;24.25;;;15.30;;
32333;SDS011;18810;53.040;8.850;2023-03-01T16:51:03;22.85;;;15.23;;
32333;SDS011;18810;53.040;8.850;2023-03-01T16:53:29;24.52;;;15.70;;
32333;SDS011;18810;53.040;8.850;2023-03-01T16:55:58;27.20;;;16.63;;
32333;SDS011;18810;53.040;8.850;2023-03-01T16:58:24;23.63;;;15.50;;
32333;SDS011;18810;53.040;8.850;2023-03-01T17:00:53;26.88;;;16.30;;
32333;SDS011;18810;53.040;8.850;2023-03-01T17:03:20;26.00;;;16.30;;
32333;SDS011;18810;53.040;8.850;2023-03-01T17:05:47;23.92;;;16.20;;
32333;SDS011;18810;53.040;8.850;2023-03-01T17:08:13;28.35;;;17.00;;
32333;SDS011;18810;53.040;8.850;2023-03-01T17:10:39;28.75;;;17.00;;